createdAt,value
2019-04-05T00:03:17.207Z,12.70
2019-04-05T00:06:39.544Z,12.70
2019-04-05T00:10:02.107Z,12.70
2019-04-05T00:13:24.208Z,12.70
2019-04-05T00:16:46.668Z,12.70
2019-04-05T00:20:09.409Z,12.60
2019-04-05T00:23:32.035Z,12.60
2019-04-05T00:26:54.440Z,12.50
2019-04-05T00:30:17.555Z,12.50
2019-04-05T00:33:40.217Z,12.40
2019-04-05T00:37:02.804Z,12.40
2019-04-05T00:40:25.508Z,12.30
2019-04-05T00:43:48.074Z,12.30
2019-04-05T00:47:10.603Z,12.20
2019-04-05T00:50:33.182Z,12.10
2019-04-05T00:53:55.662Z,12.10
2019-04-05T00:57:18.408Z,12.00
2019-04-05T01:00:40.835Z,11.90
2019-04-05T01:04:03.192Z,11.80
2019-04-05T01:07:25.859Z,11.70
2019-04-05T01:10:48.283Z,11.70
2019-04-05T01:14:11.430Z,11.60
2019-04-05T01:17:33.826Z,11.60
2019-04-05T01:20:59.300Z,11.60
2019-04-05T01:24:22.273Z,11.60
2019-04-05T01:27:44.975Z,11.50
2019-04-05T01:31:07.344Z,11.40
2019-04-05T01:34:29.632Z,11.30
2019-04-05T01:37:52.211Z,11.30
2019-04-05T01:41:14.501Z,11.20
2019-04-05T01:44:37.764Z,11.20
2019-04-05T01:48:00.128Z,11.20
2019-04-05T01:51:23.267Z,11.10
2019-04-05T01:54:45.386Z,11.10
2019-04-05T01:58:07.878Z,11.20
2019-04-05T02:01:30.395Z,11.20
2019-04-05T02:04:53.085Z,11.20
2019-04-05T02:08:15.679Z,11.20
2019-04-05T02:11:38.488Z,11.20
2019-04-05T02:15:01.272Z,11.20
2019-04-05T02:18:23.883Z,11.20
2019-04-05T02:21:46.406Z,11.10
2019-04-05T02:25:08.707Z,11.10
2019-04-05T02:28:31.288Z,11.00
2019-04-05T02:31:53.799Z,11.00
2019-04-05T02:35:16.382Z,10.90
2019-04-05T02:38:39.174Z,10.90
2019-04-05T02:42:02.293Z,10.90
2019-04-05T02:45:27.488Z,10.80
2019-04-05T02:48:51.042Z,10.80
2019-04-05T02:52:16.830Z,10.70
2019-04-05T02:55:41.259Z,10.70
2019-04-05T02:59:03.974Z,10.60
2019-04-05T03:02:26.842Z,10.60
2019-04-05T03:05:49.744Z,10.60
2019-04-05T03:09:12.547Z,10.50
2019-04-05T03:12:35.825Z,10.50
2019-04-05T03:16:01.902Z,10.40
2019-04-05T03:19:28.592Z,10.40
2019-04-05T03:22:50.865Z,10.40
2019-04-05T03:26:16.744Z,10.30
2019-04-05T03:29:39.511Z,10.20
2019-04-05T03:33:02.186Z,10.20
2019-04-05T03:36:25.423Z,10.20
2019-04-05T03:39:47.931Z,10.10
2019-04-05T03:43:11.437Z,10.10
2019-04-05T03:46:34.431Z,10.10
2019-04-05T03:49:56.762Z,10.00
2019-04-05T03:53:19.569Z,9.90
2019-04-05T03:56:42.837Z,9.90
2019-04-05T04:00:06.550Z,9.80
2019-04-05T04:03:29.358Z,9.70
2019-04-05T04:06:51.682Z,9.70
2019-04-05T04:10:17.298Z,9.60
2019-04-05T04:13:40.483Z,9.60
2019-04-05T04:17:12.069Z,9.50
2019-04-05T04:20:44.970Z,9.40
2019-04-05T04:24:09.562Z,9.40
2019-04-05T04:27:32.348Z,9.40
2019-04-05T04:30:55.147Z,9.40
2019-04-05T04:34:17.904Z,9.40
2019-04-05T04:37:40.798Z,9.40
2019-04-05T04:41:03.400Z,9.40
2019-04-05T04:44:26.441Z,9.40
2019-04-05T04:47:48.879Z,9.40
2019-04-05T04:51:11.742Z,9.40
2019-04-05T04:54:34.631Z,9.40
2019-04-05T04:57:57.472Z,9.40
2019-04-05T05:01:20.724Z,9.40
2019-04-05T05:04:42.979Z,9.50
2019-04-05T05:08:06.157Z,9.80
2019-04-05T05:11:28.863Z,10.30
2019-04-05T05:14:51.939Z,10.70
2019-04-05T05:18:15.130Z,11.30
2019-04-05T05:21:38.075Z,11.60
2019-04-05T05:25:01.000Z,12.20
2019-04-05T05:28:23.963Z,12.50
2019-04-05T05:31:46.812Z,13.00
2019-04-05T05:35:09.651Z,13.30
2019-04-05T05:38:32.059Z,13.60
2019-04-05T05:41:55.773Z,13.60
2019-04-05T05:45:18.391Z,13.90
2019-04-05T05:48:41.550Z,14.00
2019-04-05T05:52:03.996Z,13.50
2019-04-05T05:55:29.840Z,13.40
2019-04-05T05:58:50.844Z,13.40
2019-04-05T06:02:12.967Z,14.00
2019-04-05T06:05:35.577Z,14.30
2019-04-05T06:08:57.579Z,14.30
2019-04-05T06:12:20.218Z,13.60
2019-04-05T06:15:42.294Z,13.50
2019-04-05T06:19:04.859Z,12.90
2019-04-05T06:22:27.333Z,12.70
2019-04-05T06:25:49.732Z,12.20
2019-04-05T06:29:12.179Z,11.40
2019-04-05T06:32:34.629Z,10.70
2019-04-05T06:35:57.042Z,10.40
2019-04-05T06:39:20.804Z,10.40
2019-04-05T06:42:43.377Z,10.60
2019-04-05T06:46:05.832Z,10.10
2019-04-05T06:49:28.366Z,9.60
2019-04-05T06:52:51.031Z,9.40
2019-04-05T06:56:13.204Z,9.40
2019-04-05T06:59:35.660Z,9.10
2019-04-05T07:06:02.005Z,8.90
2019-04-05T07:09:24.677Z,8.20
2019-04-05T07:12:47.733Z,7.80
2019-04-05T07:16:11.225Z,7.80
2019-04-05T07:19:34.245Z,7.80
2019-04-05T07:22:56.877Z,7.70
2019-04-05T07:26:20.905Z,7.60
2019-04-05T07:29:43.836Z,7.80
2019-04-05T07:33:06.463Z,8.00
2019-04-05T07:36:29.278Z,7.90
2019-04-05T07:39:52.128Z,7.70
2019-04-05T07:43:14.624Z,7.80
2019-04-05T07:46:37.068Z,7.70
2019-04-05T07:49:59.066Z,7.70
2019-04-05T07:53:21.398Z,7.80
2019-04-05T07:56:46.144Z,7.90
2019-04-05T08:00:08.428Z,7.90
2019-04-05T08:03:30.650Z,7.80
2019-04-05T08:06:53.855Z,7.90
2019-04-05T08:10:17.435Z,7.90
2019-04-05T08:13:42.597Z,8.10
2019-04-05T08:17:05.168Z,8.10
2019-04-05T08:20:27.582Z,8.20
2019-04-05T08:23:49.887Z,8.40
2019-04-05T08:27:12.210Z,8.30
2019-04-05T08:30:34.506Z,8.20
2019-04-05T08:33:56.580Z,8.20
2019-04-05T08:37:19.250Z,8.20
2019-04-05T08:40:41.451Z,8.30
2019-04-05T08:44:04.486Z,8.40
2019-04-05T08:47:27.142Z,8.50
2019-04-05T08:50:49.436Z,8.60
2019-04-05T08:54:11.515Z,8.80
2019-04-05T08:57:33.927Z,8.90
2019-04-05T09:00:56.678Z,9.10
2019-04-05T09:04:19.300Z,9.00
2019-04-05T09:07:41.500Z,9.10
2019-04-05T09:11:04.319Z,9.00
2019-04-05T09:14:26.838Z,9.10
2019-04-05T09:17:49.219Z,9.10
2019-04-05T09:21:12.152Z,9.10
2019-04-05T09:24:34.410Z,9.20
2019-04-05T09:27:57.075Z,9.00
2019-04-05T09:31:19.753Z,9.10
2019-04-05T09:34:42.584Z,9.10
2019-04-05T09:38:06.076Z,9.10
2019-04-05T09:41:28.840Z,9.30
2019-04-05T09:44:51.422Z,9.40
2019-04-05T09:48:13.735Z,9.30
2019-04-05T09:51:36.152Z,9.20
2019-04-05T09:54:58.797Z,9.20
2019-04-05T09:58:21.221Z,9.10
2019-04-05T10:01:43.396Z,9.20
2019-04-05T10:05:06.020Z,9.30
2019-04-05T10:08:28.397Z,9.30
2019-04-05T10:11:50.903Z,9.30
2019-04-05T10:15:13.579Z,9.40
2019-04-05T10:18:36.200Z,9.40
2019-04-05T10:21:58.622Z,9.60
2019-04-05T10:25:20.714Z,9.50
2019-04-05T10:28:43.275Z,9.40
2019-04-05T10:32:05.853Z,9.60
2019-04-05T10:35:28.110Z,9.50
2019-04-05T10:38:50.390Z,9.70
2019-04-05T10:42:27.243Z,9.80
2019-04-05T10:45:49.616Z,10.00
2019-04-05T10:49:14.926Z,10.20
2019-04-05T10:52:36.230Z,10.40
2019-04-05T10:55:58.756Z,10.40
2019-04-05T10:59:21.727Z,10.20
2019-04-05T11:02:44.288Z,10.30
2019-04-05T11:06:06.976Z,10.40
2019-04-05T11:09:29.500Z,10.60
2019-04-05T11:12:52.398Z,10.90
2019-04-05T11:16:15.164Z,11.10
2019-04-05T11:19:38.007Z,11.00
2019-04-05T11:23:00.120Z,10.70
2019-04-05T11:26:22.686Z,11.10
2019-04-05T11:29:45.286Z,11.50
2019-04-05T11:33:07.904Z,11.50
2019-04-05T11:36:30.269Z,11.80
2019-04-05T11:39:52.749Z,11.90
2019-04-05T11:43:16.292Z,11.80
2019-04-05T11:46:39.741Z,11.90
2019-04-05T11:50:03.684Z,12.10
2019-04-05T11:53:26.143Z,12.20
2019-04-05T11:56:48.719Z,12.40
2019-04-05T12:00:15.492Z,12.50
2019-04-05T12:03:38.305Z,12.80
2019-04-05T12:07:00.388Z,12.90
2019-04-05T12:10:23.039Z,13.00
2019-04-05T12:13:47.656Z,13.10
2019-04-05T12:17:09.820Z,13.30
2019-04-05T12:20:33.271Z,13.20
2019-04-05T12:23:56.155Z,12.70
2019-04-05T12:27:20.827Z,13.00
2019-04-05T12:30:45.916Z,13.30
2019-04-05T12:34:08.754Z,13.50
2019-04-05T12:37:31.059Z,13.30
2019-04-05T12:40:53.812Z,12.80
2019-04-05T12:44:16.781Z,13.10
2019-04-05T12:47:39.337Z,13.30
2019-04-05T12:51:02.828Z,13.30
2019-04-05T12:54:25.926Z,13.40
2019-04-05T12:57:48.592Z,13.50
2019-04-05T13:01:11.250Z,13.40
2019-04-05T13:04:33.572Z,13.50
2019-04-05T13:07:56.012Z,13.40
2019-04-05T13:11:18.436Z,13.70
2019-04-05T13:14:41.243Z,13.80
2019-04-05T13:18:03.611Z,13.90
2019-04-05T13:21:27.633Z,14.10
2019-04-05T13:24:49.974Z,14.30
2019-04-05T13:28:13.467Z,14.20
2019-04-05T13:31:36.582Z,14.50
2019-04-05T13:35:00.039Z,14.40
2019-04-05T13:38:22.135Z,14.10
2019-04-05T13:41:44.703Z,14.00
2019-04-05T13:45:08.143Z,14.30
2019-04-05T13:48:30.588Z,14.50
2019-04-05T13:51:53.195Z,14.60
2019-04-05T13:55:15.772Z,14.60
2019-04-05T13:58:38.367Z,14.70
2019-04-05T14:02:06.334Z,14.70
2019-04-05T14:05:25.156Z,14.70
2019-04-05T14:08:47.459Z,14.80
2019-04-05T14:12:10.198Z,14.90
2019-04-05T14:15:32.304Z,14.90
2019-04-05T14:18:54.842Z,14.60
2019-04-05T14:22:17.311Z,14.50
2019-04-05T14:25:39.387Z,14.40
2019-04-05T14:29:03.684Z,14.60
2019-04-05T14:32:25.903Z,14.60
2019-04-05T14:35:48.565Z,14.70
2019-04-05T14:39:11.029Z,14.80
2019-04-05T14:42:33.696Z,14.90
2019-04-05T14:45:56.158Z,14.90
2019-04-05T14:49:18.513Z,14.90
2019-04-05T14:52:40.974Z,15.10
2019-04-05T14:56:03.949Z,15.20
2019-04-05T14:59:26.496Z,15.30
2019-04-05T15:02:48.790Z,15.20
2019-04-05T15:06:11.419Z,15.20
2019-04-05T15:09:35.797Z,15.20
2019-04-05T15:13:00.243Z,15.20
2019-04-05T15:16:23.500Z,15.10
2019-04-05T15:19:46.339Z,15.10
2019-04-05T15:23:09.753Z,15.20
2019-04-05T15:26:32.408Z,15.20
2019-04-05T15:29:55.719Z,15.30
2019-04-05T15:33:19.087Z,15.30
2019-04-05T15:36:42.031Z,15.30
2019-04-05T15:40:06.418Z,15.40
2019-04-05T15:43:30.396Z,15.30
2019-04-05T15:46:52.846Z,15.30
2019-04-05T15:50:15.668Z,15.10
2019-04-05T15:53:38.171Z,15.00
2019-04-05T15:57:03.380Z,14.90
2019-04-05T16:00:41.053Z,15.00
2019-04-05T16:04:03.655Z,15.00
2019-04-05T16:07:26.398Z,15.00
2019-04-05T16:10:48.622Z,15.00
2019-04-05T16:14:11.314Z,15.00
2019-04-05T16:17:33.877Z,15.10
2019-04-05T16:20:56.480Z,15.10
2019-04-05T16:24:18.921Z,15.10
2019-04-05T16:27:41.695Z,15.10
2019-04-05T16:31:04.593Z,15.10
2019-04-05T16:34:26.618Z,15.00
2019-04-05T16:37:48.960Z,14.90
2019-04-05T16:41:11.473Z,14.90
2019-04-05T16:44:33.837Z,14.90
2019-04-05T16:47:56.147Z,14.90
2019-04-05T16:51:18.936Z,14.90
2019-04-05T16:54:41.288Z,14.80
2019-04-05T16:58:03.685Z,14.70
2019-04-05T17:01:27.554Z,14.60
2019-04-05T17:04:50.148Z,14.50
2019-04-05T17:08:12.724Z,14.50
2019-04-05T17:11:34.775Z,14.40
2019-04-05T17:14:57.430Z,14.40
2019-04-05T17:18:20.142Z,14.30
2019-04-05T17:21:42.339Z,14.20
2019-04-05T17:25:04.999Z,14.20
2019-04-05T17:28:27.524Z,14.30
2019-04-05T17:31:50.082Z,14.20
2019-04-05T17:35:12.300Z,14.20
2019-04-05T17:38:34.524Z,14.20
2019-04-05T17:41:57.070Z,14.00
2019-04-05T17:45:19.699Z,14.00
2019-04-05T17:48:42.684Z,13.90
2019-04-05T17:52:05.236Z,13.90
2019-04-05T17:55:28.018Z,13.90
2019-04-05T17:58:50.820Z,13.90
2019-04-05T18:02:13.220Z,13.80
2019-04-05T18:05:35.689Z,13.80
2019-04-05T18:08:58.085Z,13.80
2019-04-05T18:12:20.773Z,13.70
2019-04-05T18:15:52.320Z,13.70
2019-04-05T18:19:07.235Z,13.60
2019-04-05T18:22:29.600Z,13.40
2019-04-05T18:25:52.058Z,13.30
2019-04-05T18:29:14.564Z,13.20
2019-04-05T18:32:36.965Z,13.20
2019-04-05T18:35:59.672Z,13.10
2019-04-05T18:39:21.743Z,13.10
2019-04-05T18:42:43.870Z,13.10
2019-04-05T18:46:06.256Z,13.10
2019-04-05T18:49:28.937Z,13.10
2019-04-05T18:52:51.361Z,13.10
2019-04-05T18:56:13.887Z,13.10
2019-04-05T18:59:36.626Z,13.10
2019-04-05T19:02:59.135Z,13.00
2019-04-05T19:06:21.612Z,12.90
2019-04-05T19:09:44.104Z,12.80
2019-04-05T19:13:06.272Z,12.80
2019-04-05T19:16:28.729Z,12.50
2019-04-05T19:19:51.407Z,12.60
2019-04-05T19:23:13.895Z,12.60
2019-04-05T19:26:36.443Z,12.50
2019-04-05T19:29:58.759Z,12.50
2019-04-05T19:50:24.159Z,12.30
2019-04-05T19:53:46.539Z,12.20
2019-04-05T19:57:09.246Z,12.20
2019-04-05T20:00:31.563Z,12.10
2019-04-05T20:03:53.756Z,12.00
2019-04-05T20:07:16.151Z,12.00
2019-04-05T20:10:38.739Z,11.90
2019-04-05T20:14:01.035Z,11.90
2019-04-05T20:17:23.857Z,11.90
2019-04-05T20:20:46.299Z,11.90
2019-04-05T20:24:14.040Z,11.90
2019-04-05T20:27:32.511Z,11.80
2019-04-05T20:30:54.818Z,11.80
2019-04-05T20:34:17.207Z,11.80
2019-04-05T20:37:40.212Z,11.80
2019-04-05T20:41:03.050Z,11.80
2019-04-05T20:44:25.537Z,11.80
2019-04-05T20:47:48.238Z,11.80
2019-04-05T20:51:10.494Z,11.80
2019-04-05T20:54:33.041Z,11.80
2019-04-05T20:57:55.763Z,11.80
2019-04-05T21:01:18.414Z,11.80
2019-04-05T21:04:40.959Z,11.70
2019-04-05T21:08:03.011Z,11.70
2019-04-05T21:11:27.212Z,11.70
2019-04-05T21:14:49.804Z,11.80
2019-04-05T21:18:11.914Z,11.80
2019-04-05T21:21:34.070Z,11.80
2019-04-05T21:24:56.796Z,11.70
2019-04-05T21:28:19.467Z,11.70
2019-04-05T21:31:42.059Z,11.70
2019-04-05T21:35:04.576Z,11.60
2019-04-05T21:38:26.905Z,11.60
2019-04-05T21:41:49.538Z,11.60
2019-04-05T21:45:12.342Z,11.50
2019-04-05T21:48:34.745Z,11.50
2019-04-05T21:51:57.464Z,11.50
2019-04-05T21:55:20.035Z,11.40
2019-04-05T21:58:42.285Z,11.40
2019-04-05T22:02:06.931Z,11.40
2019-04-05T22:05:29.443Z,11.40
2019-04-05T22:08:52.006Z,11.40
2019-04-05T22:12:14.770Z,11.30
2019-04-05T22:15:37.479Z,11.40
2019-04-05T22:19:00.046Z,11.40
2019-04-05T22:22:22.489Z,11.30
2019-04-05T22:25:44.964Z,11.30
2019-04-05T22:29:07.066Z,11.20
2019-04-05T22:32:29.623Z,11.10
2019-04-05T22:35:51.945Z,11.10
2019-04-05T22:39:14.015Z,11.10
2019-04-05T22:42:36.674Z,11.20
2019-04-05T22:45:59.130Z,11.20
2019-04-05T22:49:21.627Z,11.30
2019-04-05T22:52:43.988Z,11.40
2019-04-05T22:56:06.362Z,11.40
2019-04-05T22:59:28.783Z,11.50
2019-04-05T23:02:51.496Z,11.60
2019-04-05T23:06:14.181Z,11.60
2019-04-05T23:09:36.425Z,11.70
2019-04-05T23:12:58.959Z,11.70
2019-04-05T23:16:21.526Z,11.70
2019-04-05T23:19:43.900Z,11.70
2019-04-05T23:23:06.146Z,11.70
2019-04-05T23:26:28.966Z,11.70
2019-04-05T23:29:51.619Z,11.70
2019-04-05T23:33:14.368Z,11.70
2019-04-05T23:36:37.076Z,11.70
2019-04-05T23:39:59.624Z,11.70
2019-04-05T23:43:22.296Z,11.80
2019-04-05T23:46:44.845Z,11.70
2019-04-05T23:50:07.905Z,11.70
2019-04-05T23:53:30.626Z,11.70
2019-04-05T23:56:52.820Z,11.60
